createdAt,value
2019-02-19T00:01:53.394Z,131.43
2019-02-19T00:04:21.888Z,128.00
2019-02-19T00:06:50.338Z,130.07
2019-02-19T00:09:18.806Z,117.13
2019-02-19T00:11:47.343Z,125.07
2019-02-19T00:14:16.785Z,124.00
2019-02-19T00:16:45.243Z,124.40
2019-02-19T00:19:13.699Z,123.60
2019-02-19T00:21:42.171Z,130.40
2019-02-19T00:24:10.625Z,118.80
2019-02-19T00:26:39.076Z,124.77
2019-02-19T00:29:07.576Z,120.97
2019-02-19T00:31:36.101Z,121.77
2019-02-19T00:34:04.577Z,118.27
2019-02-19T00:36:33.049Z,124.07
2019-02-19T00:39:01.518Z,129.93
2019-02-19T00:41:30.004Z,125.33
2019-02-19T00:43:58.483Z,122.47
2019-02-19T00:46:27.023Z,127.60
2019-02-19T00:48:55.579Z,122.90
2019-02-19T00:51:24.044Z,128.73
2019-02-19T00:53:52.495Z,122.00
2019-02-19T00:56:21.158Z,116.57
2019-02-19T00:58:49.625Z,119.10
2019-02-19T01:01:18.160Z,113.60
2019-02-19T01:03:46.650Z,113.53
2019-02-19T01:06:15.111Z,127.00
2019-02-19T01:08:43.605Z,115.50
2019-02-19T01:11:12.126Z,121.93
2019-02-19T01:13:40.776Z,119.20
2019-02-19T01:16:10.660Z,108.27
2019-02-19T01:18:39.356Z,125.53
2019-02-19T01:21:07.921Z,122.00
2019-02-19T01:23:36.434Z,114.53
2019-02-19T01:26:04.895Z,122.03
2019-02-19T01:28:33.401Z,119.23
2019-02-19T01:31:01.858Z,120.73
2019-02-19T01:33:30.498Z,121.13
2019-02-19T01:35:59.152Z,121.23
2019-02-19T01:38:27.616Z,116.93
2019-02-19T01:40:56.073Z,112.73
2019-02-19T01:43:24.567Z,118.13
2019-02-19T01:45:53.031Z,113.67
2019-02-19T01:48:21.487Z,112.70
2019-02-19T01:50:49.987Z,107.83
2019-02-19T01:53:18.431Z,116.17
2019-02-19T01:55:46.893Z,119.83
2019-02-19T01:58:15.345Z,113.67
2019-02-19T02:00:43.811Z,114.50
2019-02-19T02:03:12.335Z,110.77
2019-02-19T02:05:40.799Z,110.73
2019-02-19T02:08:09.261Z,117.03
2019-02-19T02:10:37.759Z,110.60
2019-02-19T02:13:06.222Z,110.83
2019-02-19T02:15:42.305Z,109.40
2019-02-19T02:18:05.157Z,109.93
2019-02-19T02:20:33.613Z,111.90
2019-02-19T02:23:02.084Z,112.90
2019-02-19T02:25:30.537Z,111.53
2019-02-19T02:27:59.005Z,104.73
2019-02-19T02:30:27.476Z,105.03
2019-02-19T02:32:55.940Z,113.17
2019-02-19T02:35:24.419Z,107.23
2019-02-19T02:37:52.886Z,106.50
2019-02-19T02:40:21.372Z,104.23
2019-02-19T02:42:49.846Z,100.83
2019-02-19T02:45:18.504Z,109.37
2019-02-19T02:47:46.971Z,105.90
2019-02-19T02:50:15.433Z,112.40
2019-02-19T02:52:43.913Z,104.40
2019-02-19T02:55:12.443Z,108.07
2019-02-19T02:57:40.926Z,103.17
2019-02-19T03:00:11.466Z,111.87
2019-02-19T03:02:39.925Z,101.67
2019-02-19T03:05:08.667Z,105.50
2019-02-19T03:07:41.353Z,95.77
2019-02-19T03:10:09.960Z,102.80
2019-02-19T03:12:38.669Z,105.67
2019-02-19T03:15:08.262Z,111.50
2019-02-19T03:17:36.800Z,102.17
2019-02-19T03:20:06.986Z,106.23
2019-02-19T03:22:35.907Z,104.27
2019-02-19T03:25:05.199Z,95.03
2019-02-19T03:27:45.560Z,99.57
2019-02-19T03:30:14.019Z,113.17
2019-02-19T03:32:42.645Z,98.77
2019-02-19T03:35:11.235Z,108.40
2019-02-19T03:37:39.715Z,101.23
2019-02-19T03:40:08.450Z,102.77
2019-02-19T03:42:37.127Z,108.40
2019-02-19T03:45:08.521Z,100.60
2019-02-19T03:47:36.974Z,110.80
2019-02-19T03:50:06.179Z,99.50
2019-02-19T03:52:34.719Z,102.47
2019-02-19T03:55:03.200Z,104.33
2019-02-19T03:57:31.805Z,97.17
2019-02-19T04:00:00.350Z,100.60
2019-02-19T04:02:28.847Z,103.23
2019-02-19T04:04:57.384Z,101.57
2019-02-19T04:07:25.893Z,100.60
2019-02-19T04:09:54.408Z,108.77
2019-02-19T04:12:23.335Z,92.30
2019-02-19T04:14:51.998Z,97.57
2019-02-19T04:17:20.463Z,99.93
2019-02-19T04:19:48.986Z,99.27
2019-02-19T04:22:17.519Z,88.80
2019-02-19T04:24:46.020Z,87.33
2019-02-19T04:27:14.477Z,94.97
2019-02-19T04:29:43.011Z,99.67
2019-02-19T04:32:11.496Z,94.63
2019-02-19T04:34:40.028Z,103.10
2019-02-19T04:37:08.558Z,98.93
2019-02-19T04:39:37.057Z,96.83
2019-02-19T04:42:05.524Z,94.53
2019-02-19T04:44:33.993Z,91.47
2019-02-19T04:47:02.458Z,87.27
2019-02-19T04:49:30.906Z,88.63
2019-02-19T04:51:59.367Z,95.10
2019-02-19T04:54:27.946Z,92.57
2019-02-19T04:56:56.401Z,83.60
2019-02-19T04:59:24.866Z,91.27
2019-02-19T05:01:53.469Z,91.13
2019-02-19T05:04:22.071Z,92.67
2019-02-19T05:06:50.600Z,89.60
2019-02-19T05:09:19.092Z,84.10
2019-02-19T05:11:47.536Z,85.37
2019-02-19T05:14:15.998Z,89.50
2019-02-19T05:16:44.461Z,86.33
2019-02-19T05:19:12.909Z,85.10
2019-02-19T05:21:41.367Z,93.27
2019-02-19T05:24:09.827Z,80.30
2019-02-19T05:26:38.309Z,80.03
2019-02-19T05:29:06.763Z,86.53
2019-02-19T05:31:35.221Z,81.73
2019-02-19T05:34:03.699Z,82.17
2019-02-19T05:36:32.221Z,83.73
2019-02-19T05:39:00.770Z,81.07
2019-02-19T05:41:29.291Z,92.03
2019-02-19T05:43:57.753Z,84.83
2019-02-19T05:46:26.226Z,76.17
2019-02-19T05:48:54.703Z,72.83
2019-02-19T05:51:23.166Z,77.47
2019-02-19T05:53:51.650Z,79.50
2019-02-19T05:56:20.168Z,72.73
2019-02-19T05:58:48.685Z,78.73
2019-02-19T06:01:17.400Z,75.67
2019-02-19T06:03:45.918Z,73.63
2019-02-19T06:06:14.381Z,75.47
2019-02-19T06:08:42.931Z,66.00
2019-02-19T06:11:11.472Z,74.73
2019-02-19T06:13:40.001Z,72.13
2019-02-19T06:16:08.760Z,64.73
2019-02-19T06:18:37.337Z,65.27
2019-02-19T06:21:05.855Z,61.67
2019-02-19T06:23:34.391Z,64.33
2019-02-19T06:26:02.999Z,62.30
2019-02-19T06:28:31.575Z,60.03
2019-02-19T06:31:00.875Z,60.13
2019-02-19T06:33:38.895Z,62.10
2019-02-19T06:36:08.194Z,57.60
2019-02-19T06:38:36.656Z,53.93
2019-02-19T06:41:05.211Z,54.47
2019-02-19T06:43:33.675Z,60.17
2019-02-19T06:46:02.164Z,52.33
2019-02-19T06:48:30.712Z,56.43
2019-02-19T06:50:59.233Z,53.60
2019-02-19T06:53:27.678Z,56.03
2019-02-19T06:56:15.507Z,53.97
2019-02-19T06:58:43.968Z,52.07
2019-02-19T07:01:13.093Z,48.47
2019-02-19T07:03:45.894Z,55.07
2019-02-19T07:06:14.382Z,56.20
2019-02-19T07:08:42.833Z,55.73
2019-02-19T07:11:11.358Z,55.40
2019-02-19T07:13:39.866Z,56.83
2019-02-19T07:16:08.376Z,52.97
2019-02-19T07:18:36.876Z,53.83
2019-02-19T07:21:05.397Z,51.47
2019-02-19T07:23:33.861Z,53.83
2019-02-19T07:26:02.687Z,55.80
2019-02-19T07:28:31.193Z,52.33
2019-02-19T07:30:59.709Z,54.43
2019-02-19T07:33:28.847Z,58.87
2019-02-19T07:35:57.382Z,44.97
2019-02-19T07:38:25.863Z,51.40
2019-02-19T07:40:54.325Z,54.47
2019-02-19T07:43:22.776Z,45.07
2019-02-19T07:45:52.329Z,53.97
2019-02-19T07:48:20.979Z,51.77
2019-02-19T07:50:49.465Z,54.70
2019-02-19T07:53:17.933Z,54.13
2019-02-19T07:55:46.454Z,45.80
2019-02-19T07:58:14.936Z,52.70
2019-02-19T08:00:43.403Z,46.63
2019-02-19T08:03:11.867Z,43.67
2019-02-19T08:05:40.402Z,44.93
2019-02-19T08:08:08.867Z,45.70
2019-02-19T08:10:37.327Z,43.67
2019-02-19T08:13:05.828Z,44.43
2019-02-19T08:15:34.276Z,49.80
2019-02-19T08:18:03.589Z,49.47
2019-02-19T08:20:32.065Z,48.67
2019-02-19T08:23:00.578Z,44.23
2019-02-19T08:25:29.142Z,40.33
2019-02-19T08:27:57.675Z,48.20
2019-02-19T08:30:26.234Z,45.17
2019-02-19T08:32:54.681Z,46.57
2019-02-19T08:35:23.337Z,42.37
2019-02-19T08:37:51.906Z,39.77
2019-02-19T08:40:20.419Z,41.93
2019-02-19T08:42:48.993Z,43.13
2019-02-19T08:45:17.459Z,43.83
2019-02-19T08:47:45.994Z,38.23
2019-02-19T08:50:14.592Z,37.73
2019-02-19T08:52:43.047Z,48.30
2019-02-19T08:55:11.546Z,46.07
2019-02-19T08:57:40.001Z,50.23
2019-02-19T09:00:12.479Z,37.70
2019-02-19T09:02:44.116Z,43.67
2019-02-19T09:05:12.603Z,41.90
2019-02-19T09:07:41.178Z,43.40
2019-02-19T09:10:11.822Z,41.43
2019-02-19T09:12:40.291Z,48.27
2019-02-19T09:15:11.394Z,42.80
2019-02-19T09:17:40.121Z,44.27
2019-02-19T09:20:09.927Z,40.97
2019-02-19T09:22:38.405Z,41.20
2019-02-19T09:25:08.668Z,42.07
2019-02-19T09:27:37.252Z,39.40
2019-02-19T09:30:11.462Z,40.73
2019-02-19T09:32:39.969Z,39.40
2019-02-19T09:35:09.518Z,39.83
2019-02-19T09:37:38.100Z,36.57
2019-02-19T09:40:09.289Z,35.17
2019-02-19T09:42:37.792Z,41.07
2019-02-19T09:45:28.505Z,37.73
2019-02-19T09:48:01.188Z,37.23
2019-02-19T09:50:27.192Z,36.70
2019-02-19T09:52:59.947Z,32.37
2019-02-19T09:55:25.849Z,38.90
2019-02-19T09:57:54.382Z,35.07
2019-02-19T10:00:22.931Z,36.70
2019-02-19T10:02:51.503Z,43.30
2019-02-19T10:05:20.040Z,34.50
2019-02-19T10:07:48.503Z,31.50
2019-02-19T10:10:21.848Z,32.03
2019-02-19T10:12:50.437Z,34.87
2019-02-19T10:15:18.960Z,35.17
2019-02-19T10:17:47.476Z,34.60
2019-02-19T10:20:16.023Z,33.40
2019-02-19T10:22:44.496Z,31.83
2019-02-19T10:25:16.068Z,38.97
2019-02-19T10:27:44.550Z,34.50
2019-02-19T10:30:19.911Z,35.83
2019-02-19T10:32:48.446Z,35.10
2019-02-19T10:35:16.916Z,38.47
2019-02-19T10:37:45.422Z,34.73
2019-02-19T10:40:16.519Z,37.63
2019-02-19T10:42:45.029Z,36.20
2019-02-19T10:45:16.614Z,39.07
2019-02-19T10:47:45.099Z,34.30
2019-02-19T10:50:13.562Z,38.50
2019-02-19T10:52:42.097Z,37.73
2019-02-19T10:55:10.836Z,35.87
2019-02-19T10:57:39.339Z,37.53
2019-02-19T11:00:14.668Z,31.30
2019-02-19T11:02:43.203Z,32.93
2019-02-19T11:05:11.743Z,34.70
2019-02-19T11:07:40.274Z,34.20
2019-02-19T11:10:13.411Z,34.50
2019-02-19T11:12:42.086Z,33.73
2019-02-19T11:15:15.069Z,33.03
2019-02-19T11:17:43.547Z,34.53
2019-02-19T11:20:15.198Z,31.40
2019-02-19T11:22:43.659Z,41.03
2019-02-19T11:25:12.953Z,36.27
2019-02-19T11:27:41.440Z,37.73
2019-02-19T11:30:20.663Z,36.60
2019-02-19T11:32:49.431Z,36.17
2019-02-19T11:35:17.894Z,34.27
2019-02-19T11:37:46.466Z,36.00
2019-02-19T11:40:15.267Z,34.33
2019-02-19T11:42:43.726Z,36.83
2019-02-19T11:45:15.093Z,32.77
2019-02-19T11:47:43.588Z,30.00
2019-02-19T11:50:13.952Z,36.17
2019-02-19T11:52:42.407Z,36.17
2019-02-19T11:55:13.322Z,35.10
2019-02-19T11:57:41.855Z,31.17
2019-02-19T12:00:14.956Z,29.27
2019-02-19T12:02:43.413Z,34.33
2019-02-19T12:05:11.921Z,35.97
2019-02-19T12:07:40.393Z,28.07
2019-02-19T12:10:11.790Z,29.33
2019-02-19T12:12:40.517Z,25.70
2019-02-19T12:15:13.274Z,27.87
2019-02-19T12:17:41.808Z,27.37
2019-02-19T12:20:12.672Z,30.43
2019-02-19T12:22:41.321Z,27.93
2019-02-19T12:25:10.706Z,29.50
2019-02-19T12:27:39.441Z,28.03
2019-02-19T12:30:10.986Z,28.33
2019-02-19T12:32:39.587Z,26.33
2019-02-19T12:35:09.206Z,31.50
2019-02-19T12:37:37.741Z,29.00
2019-02-19T12:40:09.275Z,26.07
2019-02-19T12:42:37.742Z,32.20
2019-02-19T12:45:08.841Z,30.47
2019-02-19T12:47:37.584Z,30.63
2019-02-19T12:50:09.174Z,25.57
2019-02-19T12:52:37.722Z,33.50
2019-02-19T12:55:07.555Z,29.67
2019-02-19T12:57:36.876Z,35.83
2019-02-19T13:00:08.995Z,31.33
2019-02-19T13:02:37.526Z,25.43
2019-02-19T13:05:08.701Z,25.30
2019-02-19T13:07:37.180Z,32.47
2019-02-19T13:10:08.663Z,28.27
2019-02-19T13:12:37.248Z,30.40
2019-02-19T13:15:08.811Z,26.43
2019-02-19T13:17:37.277Z,31.83
2019-02-19T13:20:09.196Z,29.27
2019-02-19T13:22:37.714Z,29.70
2019-02-19T13:25:08.422Z,27.53
2019-02-19T13:27:36.955Z,33.23
2019-02-19T13:30:10.729Z,53.40
2019-02-19T13:32:39.187Z,54.20
2019-02-19T13:35:10.196Z,31.60
2019-02-19T13:37:38.753Z,31.37
2019-02-19T13:40:10.355Z,31.40
2019-02-19T13:42:38.997Z,29.87
2019-02-19T13:45:10.581Z,29.43
2019-02-19T13:47:39.033Z,34.03
2019-02-19T13:50:19.650Z,31.47
2019-02-19T13:52:52.467Z,28.13
2019-02-19T13:55:22.568Z,28.80
2019-02-19T13:57:51.035Z,30.03
2019-02-19T14:00:21.214Z,27.80
2019-02-19T14:02:49.777Z,28.23
2019-02-19T14:05:18.229Z,26.60
2019-02-19T14:07:46.691Z,31.07
2019-02-19T14:10:15.187Z,30.30
2019-02-19T14:12:43.634Z,25.07
2019-02-19T14:15:29.343Z,26.17
2019-02-19T14:17:58.137Z,23.03
2019-02-19T14:20:34.283Z,26.20
2019-02-19T14:23:16.303Z,26.17
2019-02-19T14:25:49.266Z,31.63
2019-02-19T14:28:22.511Z,26.57
2019-02-19T14:31:04.574Z,27.47
2019-02-19T14:33:34.749Z,26.93
2019-02-19T14:36:04.906Z,26.83
2019-02-19T14:38:49.974Z,29.57
2019-02-19T14:41:36.509Z,27.67
2019-02-19T14:44:09.371Z,27.83
2019-02-19T14:46:55.767Z,22.50
2019-02-19T14:49:34.185Z,25.57
2019-02-19T14:52:03.304Z,25.97
2019-02-19T14:54:39.383Z,29.40
2019-02-19T14:57:15.088Z,27.33
2019-02-19T14:59:45.197Z,26.97
2019-02-19T15:02:18.224Z,25.80
2019-02-19T15:04:54.238Z,28.03
2019-02-19T15:07:24.357Z,29.43
2019-02-19T15:09:54.598Z,29.93
2019-02-19T15:12:30.505Z,28.40
2019-02-19T15:15:00.627Z,30.77
2019-02-19T15:17:39.764Z,27.27
2019-02-19T15:20:22.269Z,28.20
2019-02-19T15:22:52.415Z,32.07
2019-02-19T15:25:22.516Z,28.60
2019-02-19T15:27:58.247Z,33.20
2019-02-19T15:30:46.529Z,37.37
2019-02-19T15:33:28.418Z,34.10
2019-02-19T15:35:58.527Z,37.73
2019-02-19T15:38:45.235Z,36.37
2019-02-19T15:41:18.026Z,40.03
2019-02-19T15:43:53.934Z,38.73
2019-02-19T15:46:26.888Z,43.43
2019-02-19T15:48:59.535Z,41.03
2019-02-19T15:51:41.577Z,45.27
2019-02-19T15:54:26.778Z,54.07
2019-02-19T15:56:57.010Z,48.73
2019-02-19T15:59:29.863Z,55.17
2019-02-19T16:02:00.046Z,56.83
2019-02-19T16:04:30.162Z,72.47
2019-02-19T16:07:00.327Z,56.77
2019-02-19T16:09:45.453Z,62.93
2019-02-19T16:12:15.633Z,64.53
2019-02-19T16:15:00.931Z,50.23
2019-02-19T16:17:46.268Z,45.77
2019-02-19T16:20:16.434Z,52.20
2019-02-19T16:23:02.788Z,49.00
2019-02-19T16:25:39.019Z,48.93
2019-02-19T16:28:11.727Z,44.87
2019-02-19T16:30:44.563Z,37.63
2019-02-19T16:33:14.981Z,51.20
2019-02-19T16:35:59.938Z,37.40
2019-02-19T16:38:32.674Z,35.27
2019-02-19T16:41:08.738Z,38.60
2019-02-19T16:43:44.579Z,38.07
2019-02-19T16:46:23.500Z,41.90
2019-02-19T16:48:56.369Z,42.67
2019-02-19T16:51:32.265Z,39.40
2019-02-19T16:54:18.490Z,39.77
2019-02-19T16:57:03.681Z,44.70
2019-02-19T16:59:33.822Z,42.70
2019-02-19T17:02:12.945Z,52.67
2019-02-19T17:04:54.989Z,48.97
2019-02-19T17:07:27.545Z,48.73
2019-02-19T17:10:13.797Z,46.33
2019-02-19T17:12:50.112Z,47.23
2019-02-19T17:15:36.460Z,45.67
2019-02-19T17:18:12.211Z,50.67
2019-02-19T17:20:51.040Z,51.73
2019-02-19T17:23:27.002Z,48.20
2019-02-19T17:25:57.118Z,59.87
2019-02-19T17:28:44.206Z,44.20
2019-02-19T17:31:31.322Z,43.50
2019-02-19T17:34:04.385Z,52.90
2019-02-19T17:36:50.865Z,49.00
2019-02-19T17:39:20.954Z,51.37
2019-02-19T17:41:51.066Z,47.20
2019-02-19T17:44:21.168Z,45.43
2019-02-19T17:46:57.190Z,62.77
2019-02-19T17:49:27.613Z,62.50
2019-02-19T17:52:14.381Z,52.77
2019-02-19T17:55:01.057Z,55.13
2019-02-19T17:57:31.283Z,47.57
2019-02-19T18:00:01.512Z,39.23
2019-02-19T18:02:31.691Z,40.07
2019-02-19T18:05:07.646Z,38.00
2019-02-19T18:07:37.761Z,35.60
2019-02-19T18:10:12.672Z,37.57
2019-02-19T18:12:51.752Z,37.30
2019-02-19T18:15:24.681Z,38.40
2019-02-19T18:17:57.742Z,41.57
2019-02-19T18:20:26.200Z,41.30
2019-02-19T18:22:54.654Z,41.87
2019-02-19T18:25:23.132Z,40.30
2019-02-19T18:27:51.686Z,44.87
2019-02-19T18:30:20.239Z,45.57
2019-02-19T18:32:48.777Z,42.00
2019-02-19T18:35:17.250Z,46.90
2019-02-19T18:37:45.720Z,41.57
2019-02-19T18:40:14.267Z,46.23
2019-02-19T18:42:42.726Z,47.53
2019-02-19T18:45:11.272Z,50.27
2019-02-19T18:47:39.766Z,51.77
2019-02-19T18:50:09.553Z,45.17
2019-02-19T18:52:38.043Z,50.47
2019-02-19T18:55:12.539Z,53.90
2019-02-19T18:57:41.007Z,51.67
2019-02-19T19:00:12.263Z,55.90
2019-02-19T19:02:40.796Z,46.40
2019-02-19T19:05:09.710Z,50.53
2019-02-19T19:07:38.172Z,55.77
2019-02-19T19:10:09.836Z,56.97
2019-02-19T19:12:38.461Z,48.17
2019-02-19T19:15:09.271Z,54.60
2019-02-19T19:17:37.762Z,47.73
2019-02-19T19:20:09.440Z,53.77
2019-02-19T19:22:37.973Z,49.17
2019-02-19T19:25:07.510Z,53.40
2019-02-19T19:27:36.032Z,52.50
2019-02-19T19:30:10.449Z,53.13
2019-02-19T19:32:38.970Z,54.77
2019-02-19T19:35:09.841Z,58.83
2019-02-19T19:37:38.378Z,61.20
2019-02-19T19:40:09.738Z,61.30
2019-02-19T19:42:38.238Z,65.80
2019-02-19T19:45:10.394Z,62.67
2019-02-19T19:47:38.848Z,64.57
2019-02-19T19:50:11.563Z,65.33
2019-02-19T19:52:40.351Z,69.10
2019-02-19T19:55:10.115Z,70.97
2019-02-19T19:57:38.795Z,73.10
2019-02-19T20:00:12.586Z,61.87
2019-02-19T20:02:41.128Z,60.03
2019-02-19T20:05:10.523Z,52.13
2019-02-19T20:07:39.023Z,50.60
2019-02-19T20:10:15.240Z,46.50
2019-02-19T20:12:43.968Z,51.93
2019-02-19T20:15:13.044Z,48.37
2019-02-19T20:17:41.499Z,49.53
2019-02-19T20:20:13.441Z,48.43
2019-02-19T20:22:42.008Z,46.07
2019-02-19T20:25:14.425Z,52.70
2019-02-19T20:27:42.903Z,47.90
2019-02-19T20:30:14.003Z,46.03
2019-02-19T20:32:42.463Z,43.30
2019-02-19T20:35:11.464Z,41.40
2019-02-19T20:37:39.998Z,38.97
2019-02-19T20:40:10.319Z,41.80
2019-02-19T20:42:38.832Z,40.10
2019-02-19T20:45:12.225Z,36.97
2019-02-19T20:47:40.749Z,36.03
2019-02-19T20:50:11.798Z,38.00
2019-02-19T20:52:40.337Z,39.30
2019-02-19T20:55:11.002Z,32.20
2019-02-19T20:57:39.554Z,37.00
2019-02-19T21:00:11.737Z,31.67
2019-02-19T21:02:40.199Z,37.87
2019-02-19T21:05:10.503Z,34.47
2019-02-19T21:07:38.990Z,35.90
2019-02-19T21:10:10.522Z,34.43
2019-02-19T21:12:39.090Z,36.03
2019-02-19T21:15:07.622Z,37.60
2019-02-19T21:17:36.163Z,33.10
2019-02-19T21:20:07.407Z,36.90
2019-02-19T21:22:36.203Z,35.63
2019-02-19T21:25:07.100Z,34.50
2019-02-19T21:27:35.653Z,38.87
2019-02-19T21:30:09.286Z,40.13
2019-02-19T21:32:37.750Z,37.90
2019-02-19T21:35:07.357Z,44.80
2019-02-19T21:37:35.879Z,38.93
2019-02-19T21:40:07.205Z,38.23
2019-02-19T21:42:35.789Z,42.40
2019-02-19T21:45:09.960Z,41.17
2019-02-19T21:47:38.537Z,42.27
2019-02-19T21:50:09.297Z,38.03
2019-02-19T21:52:46.882Z,48.00
2019-02-19T21:55:15.475Z,42.70
2019-02-19T21:57:43.964Z,46.70
2019-02-19T22:00:16.200Z,45.07
2019-02-19T22:02:44.886Z,44.33
2019-02-19T22:05:13.358Z,48.57
2019-02-19T22:07:41.883Z,60.33
2019-02-19T22:10:12.690Z,53.03
2019-02-19T22:12:41.171Z,53.43
2019-02-19T22:15:11.939Z,57.60
2019-02-19T22:17:40.853Z,49.73
2019-02-19T22:20:14.333Z,53.97
2019-02-19T22:22:42.852Z,51.77
2019-02-19T22:25:11.396Z,53.67
2019-02-19T22:27:39.867Z,51.47
2019-02-19T22:30:09.594Z,50.50
2019-02-19T22:32:38.038Z,49.37
2019-02-19T22:35:07.265Z,44.70
2019-02-19T22:37:35.722Z,44.13
2019-02-19T22:40:06.691Z,45.13
2019-02-19T22:42:35.162Z,40.23
2019-02-19T22:45:04.524Z,38.67
2019-02-19T22:47:33.157Z,40.30
2019-02-19T22:50:01.627Z,36.80
2019-02-19T22:52:30.414Z,40.17
2019-02-19T22:55:00.517Z,38.93
2019-02-19T22:57:29.032Z,33.37
2019-02-19T22:59:57.528Z,38.63
2019-02-19T23:02:26.295Z,35.47
2019-02-19T23:04:54.859Z,38.53
2019-02-19T23:07:23.309Z,33.60
2019-02-19T23:09:51.853Z,38.53
2019-02-19T23:12:20.338Z,34.13
2019-02-19T23:14:48.803Z,32.53
2019-02-19T23:17:17.297Z,36.20
2019-02-19T23:19:45.833Z,37.57
2019-02-19T23:22:21.304Z,38.57
2019-02-19T23:24:44.486Z,39.23
2019-02-19T23:27:12.972Z,37.47
2019-02-19T23:29:41.489Z,34.63
2019-02-19T23:32:09.936Z,37.03
2019-02-19T23:34:38.435Z,33.57
2019-02-19T23:37:06.922Z,37.20
2019-02-19T23:39:43.465Z,35.13
2019-02-19T23:42:05.575Z,35.43
2019-02-19T23:44:34.020Z,32.70
2019-02-19T23:47:02.484Z,29.97
2019-02-19T23:49:30.979Z,33.97
2019-02-19T23:51:59.428Z,33.70
2019-02-19T23:54:28.303Z,35.37
2019-02-19T23:56:56.820Z,30.30
2019-02-19T23:59:25.318Z,33.63
